createdAt,value
2018-09-10T00:02:46.293Z,19.40
2018-09-10T00:05:50.632Z,19.30
2018-09-10T00:08:55.046Z,19.50
2018-09-10T00:11:59.490Z,19.40
2018-09-10T00:15:03.938Z,19.30
2018-09-10T00:18:08.184Z,19.30
2018-09-10T00:21:12.557Z,19.20
2018-09-10T00:24:16.785Z,19.20
2018-09-10T00:27:20.895Z,19.20
2018-09-10T00:30:25.014Z,19.10
2018-09-10T00:33:29.069Z,19.00
2018-09-10T00:36:33.424Z,19.00
2018-09-10T00:39:37.562Z,19.00
2018-09-10T00:42:41.789Z,19.00
2018-09-10T00:45:46.198Z,19.00
2018-09-10T00:48:50.517Z,19.00
2018-09-10T00:51:54.824Z,18.90
2018-09-10T00:54:59.195Z,18.90
2018-09-10T00:58:03.459Z,18.70
2018-09-10T01:01:07.822Z,18.70
2018-09-10T01:04:11.982Z,18.70
2018-09-10T01:07:16.126Z,18.70
2018-09-10T01:10:20.437Z,18.70
2018-09-10T01:13:25.517Z,18.60
2018-09-10T01:16:29.845Z,18.50
2018-09-10T01:19:34.906Z,18.40
2018-09-10T01:22:39.382Z,18.40
2018-09-10T01:25:43.758Z,18.40
2018-09-10T01:28:48.026Z,18.40
2018-09-10T01:31:52.410Z,18.40
2018-09-10T01:35:03.033Z,18.30
2018-09-10T01:38:07.356Z,18.30
2018-09-10T01:41:12.418Z,18.30
2018-09-10T01:44:16.722Z,18.30
2018-09-10T01:47:20.959Z,18.30
2018-09-10T01:50:25.280Z,18.20
2018-09-10T01:53:29.572Z,18.20
2018-09-10T01:56:33.845Z,18.20
2018-09-10T01:59:37.978Z,18.20
2018-09-10T02:02:42.116Z,18.10
2018-09-10T02:05:46.457Z,18.20
2018-09-10T02:08:50.756Z,18.20
2018-09-10T02:11:55.100Z,18.10
2018-09-10T02:14:59.548Z,18.10
2018-09-10T02:18:03.910Z,18.10
2018-09-10T02:21:08.266Z,18.00
2018-09-10T02:24:12.686Z,18.00
2018-09-10T02:27:17.051Z,18.00
2018-09-10T02:30:21.394Z,17.90
2018-09-10T02:33:25.711Z,17.90
2018-09-10T02:36:29.980Z,17.90
2018-09-10T02:39:34.402Z,17.80
2018-09-10T02:42:38.913Z,17.80
2018-09-10T02:45:43.318Z,17.80
2018-09-10T02:48:47.484Z,17.80
2018-09-10T02:51:51.821Z,17.90
2018-09-10T02:54:56.149Z,18.00
2018-09-10T02:58:00.577Z,17.90
2018-09-10T03:01:05.002Z,18.00
2018-09-10T03:04:09.303Z,18.10
2018-09-10T03:07:14.054Z,18.10
2018-09-10T03:10:18.471Z,18.20
2018-09-10T03:13:23.522Z,18.30
2018-09-10T03:16:27.615Z,18.30
2018-09-10T03:19:31.738Z,18.40
2018-09-10T03:22:35.843Z,18.30
2018-09-10T03:25:39.959Z,18.40
2018-09-10T03:28:44.284Z,18.50
2018-09-10T03:31:48.617Z,18.50
2018-09-10T03:34:52.925Z,18.50
2018-09-10T03:37:57.245Z,18.50
2018-09-10T03:41:01.455Z,18.50
2018-09-10T03:44:05.796Z,18.40
2018-09-10T03:47:11.100Z,18.40
2018-09-10T03:50:15.149Z,18.40
2018-09-10T03:53:19.501Z,18.30
2018-09-10T03:56:23.763Z,18.30
2018-09-10T03:59:28.147Z,18.30
2018-09-10T04:02:32.485Z,18.20
2018-09-10T04:05:36.773Z,18.20
2018-09-10T04:08:40.887Z,18.20
2018-09-10T04:11:45.103Z,18.10
2018-09-10T04:14:49.506Z,18.10
2018-09-10T04:17:53.740Z,18.10
2018-09-10T04:20:58.123Z,18.00
2018-09-10T04:24:02.411Z,18.00
2018-09-10T04:27:06.705Z,18.00
2018-09-10T04:30:13.874Z,18.00
2018-09-10T04:33:18.102Z,18.00
2018-09-10T04:36:22.473Z,18.00
2018-09-10T04:39:26.831Z,18.00
2018-09-10T04:42:31.107Z,18.00
2018-09-10T04:45:35.490Z,17.90
2018-09-10T04:48:39.659Z,17.90
2018-09-10T04:51:43.955Z,17.90
2018-09-10T04:54:48.301Z,17.90
2018-09-10T04:57:52.669Z,17.90
2018-09-10T05:00:57.105Z,17.90
2018-09-10T05:04:01.323Z,18.00
2018-09-10T05:07:05.734Z,18.00
2018-09-10T05:10:09.934Z,18.00
2018-09-10T05:13:14.337Z,18.00
2018-09-10T05:16:18.653Z,18.00
2018-09-10T05:19:22.987Z,18.10
2018-09-10T05:22:28.337Z,18.10
2018-09-10T05:25:32.389Z,18.10
2018-09-10T05:28:36.540Z,18.20
2018-09-10T05:31:40.751Z,18.20
2018-09-10T05:34:45.114Z,18.30
2018-09-10T05:37:49.755Z,18.30
2018-09-10T05:40:53.861Z,18.30
2018-09-10T05:43:57.946Z,18.40
2018-09-10T05:47:02.166Z,18.50
2018-09-10T05:50:06.698Z,18.60
2018-09-10T05:53:11.052Z,18.60
2018-09-10T05:56:15.531Z,18.60
2018-09-10T05:59:19.846Z,18.60
2018-09-10T06:02:24.321Z,18.70
2018-09-10T06:05:28.650Z,18.80
2018-09-10T06:08:33.112Z,18.90
2018-09-10T06:11:37.574Z,18.90
2018-09-10T06:14:42.012Z,19.10
2018-09-10T06:17:46.233Z,19.20
2018-09-10T06:20:50.548Z,19.40
2018-09-10T06:23:55.080Z,19.70
2018-09-10T06:26:59.141Z,20.10
2018-09-10T06:30:03.654Z,20.70
2018-09-10T06:33:07.788Z,22.40
2018-09-10T06:36:12.023Z,24.50
2018-09-10T06:39:16.232Z,26.30
2018-09-10T06:42:20.633Z,27.70
2018-09-10T06:45:25.023Z,28.80
2018-09-10T06:48:35.248Z,30.00
2018-09-10T06:51:39.557Z,31.00
2018-09-10T06:54:44.022Z,31.90
2018-09-10T06:57:49.277Z,32.60
2018-09-10T07:00:53.536Z,33.40
2018-09-10T07:03:57.399Z,34.00
2018-09-10T07:07:01.594Z,34.70
2018-09-10T07:10:06.292Z,35.40
2018-09-10T07:13:10.565Z,36.00
2018-09-10T07:16:14.737Z,36.10
2018-09-10T07:19:18.934Z,36.20
2018-09-10T07:22:23.179Z,36.60
2018-09-10T07:25:27.475Z,37.20
2018-09-10T07:28:32.017Z,37.80
2018-09-10T07:31:36.246Z,38.80
2018-09-10T07:34:40.540Z,39.70
2018-09-10T07:37:44.824Z,39.80
2018-09-10T07:40:49.272Z,40.40
2018-09-10T07:43:53.468Z,40.60
2018-09-10T07:46:58.001Z,40.60
2018-09-10T07:50:02.300Z,41.30
2018-09-10T07:53:06.612Z,41.30
2018-09-10T07:56:11.161Z,41.70
2018-09-10T07:59:15.400Z,41.90
2018-09-10T08:02:19.688Z,42.80
2018-09-10T08:05:24.028Z,43.80
2018-09-10T08:08:28.391Z,44.90
2018-09-10T08:11:32.693Z,45.80
2018-09-10T08:14:36.907Z,46.30
2018-09-10T08:17:41.194Z,46.50
2018-09-10T08:20:45.329Z,47.40
2018-09-10T08:23:49.603Z,48.30
2018-09-10T08:26:53.817Z,49.20
2018-09-10T08:29:58.126Z,49.50
2018-09-10T08:33:02.568Z,50.20
2018-09-10T08:36:07.013Z,51.10
2018-09-10T08:39:11.441Z,52.00
2018-09-10T08:42:16.713Z,52.80
2018-09-10T08:45:20.980Z,53.60
2018-09-10T08:48:26.715Z,54.30
2018-09-10T08:51:30.923Z,55.00
2018-09-10T08:54:35.609Z,55.40
2018-09-10T08:57:39.529Z,55.80
2018-09-10T09:00:43.914Z,56.30
2018-09-10T09:03:48.358Z,57.10
2018-09-10T09:06:52.642Z,57.60
2018-09-10T09:09:56.992Z,57.80
2018-09-10T09:13:01.199Z,58.60
2018-09-10T09:16:05.376Z,59.20
2018-09-10T09:19:09.732Z,59.20
2018-09-10T09:22:14.180Z,59.10
2018-09-10T09:25:18.479Z,58.20
2018-09-10T09:28:22.629Z,58.30
2018-09-10T09:31:26.802Z,58.60
2018-09-10T09:34:35.872Z,57.70
2018-09-10T09:37:45.160Z,57.80
2018-09-10T09:40:54.541Z,57.80
2018-09-10T09:44:04.187Z,57.70
2018-09-10T09:47:08.395Z,58.00
2018-09-10T09:50:12.700Z,58.30
2018-09-10T09:53:17.244Z,57.80
2018-09-10T09:56:21.568Z,56.40
2018-09-10T09:59:25.889Z,55.70
2018-09-10T10:02:35.457Z,54.40
2018-09-10T10:05:39.745Z,52.60
2018-09-10T10:08:44.187Z,50.10
2018-09-10T10:11:49.116Z,48.30
2018-09-10T10:15:00.199Z,46.40
2018-09-10T10:18:04.583Z,43.30
2018-09-10T10:21:08.811Z,41.60
2018-09-10T10:24:12.969Z,40.10
2018-09-10T10:27:17.160Z,38.80
2018-09-10T10:30:21.606Z,37.60
2018-09-10T10:33:25.889Z,36.60
2018-09-10T10:36:30.325Z,35.90
2018-09-10T10:39:34.431Z,35.30
2018-09-10T10:42:38.790Z,34.70
2018-09-10T10:45:43.109Z,34.10
2018-09-10T10:48:47.910Z,33.70
2018-09-10T10:51:52.375Z,33.10
2018-09-10T10:54:56.815Z,32.90
2018-09-10T10:58:01.223Z,32.80
2018-09-10T11:01:05.617Z,32.60
2018-09-10T11:04:09.921Z,32.60
2018-09-10T11:07:14.225Z,32.70
2018-09-10T11:10:18.526Z,32.40
2018-09-10T11:13:23.060Z,32.20
2018-09-10T11:16:27.404Z,32.30
2018-09-10T11:19:31.782Z,32.40
2018-09-10T11:22:36.282Z,32.30
2018-09-10T11:25:40.634Z,32.10
2018-09-10T11:28:45.072Z,32.10
2018-09-10T11:31:49.250Z,32.20
2018-09-10T11:34:53.478Z,32.20
2018-09-10T11:37:57.328Z,32.30
2018-09-10T11:41:01.194Z,32.10
2018-09-10T11:44:05.109Z,32.10
2018-09-10T11:47:09.966Z,32.10
2018-09-10T11:50:14.414Z,32.20
2018-09-10T11:53:18.971Z,32.20
2018-09-10T11:56:23.034Z,32.30
2018-09-10T11:59:27.487Z,32.50
2018-09-10T12:02:32.128Z,32.20
2018-09-10T12:05:36.851Z,32.20
2018-09-10T12:08:41.145Z,31.90
2018-09-10T12:11:45.677Z,31.80
2018-09-10T12:14:50.104Z,31.80
2018-09-10T12:17:54.191Z,32.00
2018-09-10T12:20:58.371Z,32.00
2018-09-10T12:24:02.530Z,31.70
2018-09-10T12:27:06.806Z,31.80
2018-09-10T12:30:11.031Z,31.40
2018-09-10T12:33:15.417Z,30.90
2018-09-10T12:36:19.794Z,31.00
2018-09-10T12:39:24.091Z,31.20
2018-09-10T12:42:31.343Z,31.40
2018-09-10T12:45:36.599Z,31.30
2018-09-10T12:48:41.312Z,31.40
2018-09-10T12:51:45.457Z,31.20
2018-09-10T12:54:49.840Z,31.30
2018-09-10T12:57:54.662Z,31.30
2018-09-10T13:00:59.078Z,31.00
2018-09-10T13:04:03.385Z,31.10
2018-09-10T13:07:07.724Z,31.10
2018-09-10T13:10:11.801Z,31.20
2018-09-10T13:13:16.408Z,31.20
2018-09-10T13:16:20.827Z,31.30
2018-09-10T13:19:25.088Z,31.20
2018-09-10T13:22:29.390Z,31.30
2018-09-10T13:25:33.651Z,31.30
2018-09-10T13:28:38.037Z,31.20
2018-09-10T13:31:42.729Z,31.20
2018-09-10T13:34:46.997Z,31.10
2018-09-10T13:37:51.377Z,31.00
2018-09-10T13:40:55.867Z,31.00
2018-09-10T13:44:00.174Z,30.90
2018-09-10T13:47:04.543Z,30.80
2018-09-10T13:50:08.841Z,30.50
2018-09-10T13:53:13.184Z,30.50
2018-09-10T13:56:17.521Z,30.50
2018-09-10T13:59:22.121Z,30.40
2018-09-10T14:02:26.409Z,30.10
2018-09-10T14:05:30.711Z,30.10
2018-09-10T14:08:35.052Z,30.10
2018-09-10T14:11:39.291Z,30.10
2018-09-10T14:14:43.193Z,30.20
2018-09-10T14:17:47.349Z,30.20
2018-09-10T14:20:51.382Z,30.20
2018-09-10T14:23:55.351Z,30.00
2018-09-10T14:26:59.270Z,29.90
2018-09-10T14:30:03.252Z,29.80
2018-09-10T14:33:07.312Z,29.80
2018-09-10T14:36:11.675Z,29.80
2018-09-10T14:39:16.041Z,29.70
2018-09-10T14:42:20.514Z,29.70
2018-09-10T14:45:24.870Z,29.70
2018-09-10T14:48:29.359Z,29.80
2018-09-10T14:51:33.671Z,29.80
2018-09-10T14:54:38.181Z,29.70
2018-09-10T14:57:42.562Z,29.50
2018-09-10T15:00:46.921Z,29.60
2018-09-10T15:03:51.395Z,29.60
2018-09-10T15:06:55.959Z,29.60
2018-09-10T15:10:00.358Z,29.50
2018-09-10T15:13:04.726Z,29.40
2018-09-10T15:16:08.893Z,29.30
2018-09-10T15:19:12.810Z,29.30
2018-09-10T15:22:16.969Z,29.40
2018-09-10T15:25:21.237Z,29.40
2018-09-10T15:28:25.587Z,29.40
2018-09-10T15:31:29.878Z,29.20
2018-09-10T15:34:34.440Z,29.00
2018-09-10T15:37:39.398Z,28.90
2018-09-10T15:40:44.074Z,28.90
2018-09-10T15:43:48.486Z,29.00
2018-09-10T15:46:52.872Z,28.90
2018-09-10T15:49:57.251Z,28.60
2018-09-10T15:53:01.901Z,28.50
2018-09-10T15:56:06.305Z,28.40
2018-09-10T15:59:10.734Z,28.20
2018-09-10T16:02:15.190Z,28.10
2018-09-10T16:05:19.451Z,28.10
2018-09-10T16:08:23.694Z,28.10
2018-09-10T16:11:28.276Z,27.90
2018-09-10T16:14:32.693Z,27.70
2018-09-10T16:17:37.137Z,27.50
2018-09-10T16:20:41.325Z,27.50
2018-09-10T16:23:45.593Z,27.60
2018-09-10T16:26:49.777Z,27.50
2018-09-10T16:29:54.097Z,27.60
2018-09-10T16:32:58.386Z,27.60
2018-09-10T16:36:02.556Z,27.60
2018-09-10T16:39:09.285Z,27.40
2018-09-10T16:42:13.628Z,27.30
2018-09-10T16:45:18.308Z,27.30
2018-09-10T16:48:22.723Z,27.20
2018-09-10T16:51:27.340Z,27.20
2018-09-10T16:54:31.847Z,27.20
2018-09-10T16:57:36.269Z,27.20
2018-09-10T17:00:40.654Z,27.10
2018-09-10T17:03:44.917Z,27.10
2018-09-10T17:06:49.396Z,27.10
2018-09-10T17:09:53.713Z,27.00
2018-09-10T17:12:58.338Z,26.90
2018-09-10T17:16:02.751Z,26.80
2018-09-10T17:19:07.164Z,26.80
2018-09-10T17:22:11.453Z,26.70
2018-09-10T17:25:15.793Z,26.60
2018-09-10T17:28:20.570Z,26.60
2018-09-10T17:31:25.206Z,26.40
2018-09-10T17:34:29.499Z,26.40
2018-09-10T17:37:33.809Z,26.30
2018-09-10T17:40:38.162Z,26.20
2018-09-10T17:43:42.708Z,26.10
2018-09-10T17:46:47.131Z,26.00
2018-09-10T17:49:51.514Z,25.90
2018-09-10T17:52:56.228Z,25.80
2018-09-10T17:56:00.686Z,25.60
2018-09-10T17:59:05.622Z,25.50
2018-09-10T18:02:09.929Z,25.50
2018-09-10T18:05:14.403Z,25.40
2018-09-10T18:08:18.832Z,25.40
2018-09-10T18:11:23.177Z,25.30
2018-09-10T18:14:27.251Z,25.30
2018-09-10T18:17:31.422Z,25.30
2018-09-10T18:20:36.915Z,25.20
2018-09-10T18:23:41.207Z,25.10
2018-09-10T18:26:50.947Z,25.10
2018-09-10T18:29:55.248Z,25.00
2018-09-10T18:32:59.527Z,25.00
2018-09-10T18:36:03.833Z,24.90
2018-09-10T18:39:09.930Z,24.80
2018-09-10T18:42:14.870Z,24.60
2018-09-10T18:45:19.085Z,24.50
2018-09-10T18:48:24.407Z,24.40
2018-09-10T18:51:28.829Z,24.30
2018-09-10T18:54:34.324Z,24.30
2018-09-10T18:57:38.617Z,24.20
2018-09-10T19:00:43.667Z,24.10
2018-09-10T19:03:49.038Z,24.00
2018-09-10T19:06:53.674Z,23.80
2018-09-10T19:09:57.933Z,23.60
2018-09-10T19:13:02.187Z,23.30
2018-09-10T19:16:06.616Z,23.20
2018-09-10T19:19:10.770Z,23.20
2018-09-10T19:22:15.060Z,23.10
2018-09-10T19:25:19.207Z,23.10
2018-09-10T19:28:23.773Z,23.00
2018-09-10T19:31:31.902Z,23.00
2018-09-10T19:34:37.610Z,23.00
2018-09-10T19:37:42.025Z,22.90
2018-09-10T19:40:46.380Z,22.90
2018-09-10T19:43:50.560Z,22.90
2018-09-10T19:46:55.047Z,22.80
2018-09-10T19:49:59.409Z,22.80
2018-09-10T19:53:10.916Z,22.80
2018-09-10T19:56:15.695Z,22.70
2018-09-10T19:59:20.095Z,22.60
2018-09-10T20:02:24.580Z,22.60
2018-09-10T20:05:31.184Z,22.50
2018-09-10T20:08:36.684Z,22.40
2018-09-10T20:11:41.485Z,22.40
2018-09-10T20:14:46.191Z,22.30
2018-09-10T20:17:50.892Z,22.20
2018-09-10T20:20:55.362Z,22.10
2018-09-10T20:23:59.474Z,22.00
2018-09-10T20:27:03.730Z,21.90
2018-09-10T20:30:08.342Z,21.90
2018-09-10T20:33:14.116Z,21.80
2018-09-10T20:36:18.842Z,21.60
2018-09-10T20:39:23.346Z,21.60
2018-09-10T20:42:27.702Z,21.60
2018-09-10T20:45:32.192Z,21.60
2018-09-10T20:48:36.788Z,21.60
2018-09-10T20:51:41.264Z,21.40
2018-09-10T20:54:45.630Z,21.40
2018-09-10T20:57:50.229Z,21.40
2018-09-10T21:00:54.915Z,21.30
2018-09-10T21:03:59.469Z,21.20
2018-09-10T21:07:03.771Z,21.20
2018-09-10T21:10:08.213Z,21.10
2018-09-10T21:13:13.776Z,21.10
2018-09-10T21:16:17.705Z,21.10
2018-09-10T21:19:22.153Z,21.00
2018-09-10T21:22:27.519Z,21.00
2018-09-10T21:25:32.178Z,21.00
2018-09-10T21:28:36.158Z,21.00
2018-09-10T21:31:40.060Z,20.90
2018-09-10T21:34:44.501Z,21.00
2018-09-10T21:37:51.398Z,20.90
2018-09-10T21:40:55.487Z,21.00
2018-09-10T21:43:59.718Z,21.00
2018-09-10T21:47:04.124Z,21.10
2018-09-10T21:50:08.514Z,21.00
2018-09-10T21:53:12.409Z,21.00
2018-09-10T21:56:16.733Z,20.90
2018-09-10T21:59:20.669Z,20.90
2018-09-10T22:02:26.035Z,20.90
2018-09-10T22:05:30.355Z,20.80
2018-09-10T22:08:35.367Z,20.70
2018-09-10T22:11:46.218Z,20.70
2018-09-10T22:14:50.559Z,20.70
2018-09-10T22:17:54.980Z,20.70
2018-09-10T22:20:59.774Z,20.60
2018-09-10T22:24:04.619Z,20.60
2018-09-10T22:27:09.018Z,20.60
2018-09-10T22:30:13.613Z,20.50
2018-09-10T22:33:18.712Z,20.50
2018-09-10T22:36:23.532Z,20.50
2018-09-10T22:39:27.896Z,20.40
2018-09-10T22:42:32.333Z,20.40
2018-09-10T22:45:36.835Z,20.40
2018-09-10T22:48:40.815Z,20.30
2018-09-10T22:51:45.070Z,20.30
2018-09-10T22:54:50.132Z,20.20
2018-09-10T22:57:54.505Z,20.10
2018-09-10T23:00:58.973Z,20.00
2018-09-10T23:04:03.382Z,20.00
2018-09-10T23:07:09.380Z,20.00
2018-09-10T23:10:14.201Z,20.00
2018-09-10T23:13:18.382Z,20.00
2018-09-10T23:16:22.853Z,20.00
2018-09-10T23:19:27.178Z,20.00
2018-09-10T23:22:31.939Z,20.00
2018-09-10T23:25:36.397Z,19.80
2018-09-10T23:28:40.633Z,19.70
2018-09-10T23:31:44.964Z,19.80
2018-09-10T23:34:49.241Z,19.80
2018-09-10T23:37:53.684Z,19.70
2018-09-10T23:40:58.037Z,19.60
2018-09-10T23:44:02.294Z,19.60
2018-09-10T23:47:06.252Z,19.60
2018-09-10T23:50:11.526Z,19.60
2018-09-10T23:53:16.001Z,19.60
2018-09-10T23:56:21.284Z,19.60
2018-09-10T23:59:25.478Z,19.60
